sensor_id;sensor_type;location;lat;lon;timestamp;temperature;humidity
64833;HTU21D;51290;45.060;38.948;2022-12-18T00:01:20;10.42;71.96
64833;HTU21D;51290;45.060;38.948;2022-12-18T00:03:47;10.38;71.97
64833;HTU21D;51290;45.060;38.948;2022-12-18T00:06:14;10.31;71.96
64833;HTU21D;51290;45.060;38.948;2022-12-18T00:08:44;10.26;71.97
64833;HTU21D;51290;45.060;38.948;2022-12-18T00:11:15;10.18;72.01
64833;HTU21D;51290;45.060;38.948;2022-12-18T00:13:42;10.11;72.13
64833;HTU21D;51290;45.060;38.948;2022-12-18T00:16:13;10.06;72.26
64833;HTU21D;51290;45.060;38.948;2022-12-18T00:18:40;10.04;72.35
64833;HTU21D;51290;45.060;38.948;2022-12-18T00:21:08;10.00;72.45
64833;HTU21D;51290;45.060;38.948;2022-12-18T00:23:36;9.98;72.48
64833;HTU21D;51290;45.060;38.948;2022-12-18T00:26:10;9.95;72.49
64833;HTU21D;51290;45.060;38.948;2022-12-18T00:28:36;9.94;72.43
64833;HTU21D;51290;45.060;38.948;2022-12-18T00:31:07;9.90;72.42
64833;HTU21D;51290;45.060;38.948;2022-12-18T00:33:34;9.85;72.42
64833;HTU21D;51290;45.060;38.948;2022-12-18T00:36:02;9.80;72.41
64833;HTU21D;51290;45.060;38.948;2022-12-18T00:38:28;9.74;72.43
64833;HTU21D;51290;45.060;38.948;2022-12-18T00:40:54;9.65;72.46
64833;HTU21D;51290;45.060;38.948;2022-12-18T00:43:20;9.59;72.51
64833;HTU21D;51290;45.060;38.948;2022-12-18T00:45:46;9.52;72.58
64833;HTU21D;51290;45.060;38.948;2022-12-18T00:48:12;9.46;72.64
64833;HTU21D;51290;45.060;38.948;2022-12-18T00:50:38;9.40;72.70
64833;HTU21D;51290;45.060;38.948;2022-12-18T00:53:04;9.33;72.77
64833;HTU21D;51290;45.060;38.948;2022-12-18T00:55:32;9.27;72.83
64833;HTU21D;51290;45.060;38.948;2022-12-18T00:57:58;9.22;72.90
64833;HTU21D;51290;45.060;38.948;2022-12-18T01:00:24;9.16;72.95
64833;HTU21D;51290;45.060;38.948;2022-12-18T01:02:50;9.09;73.00
64833;HTU21D;51290;45.060;38.948;2022-12-18T01:05:16;9.04;73.07
64833;HTU21D;51290;45.060;38.948;2022-12-18T01:07:42;8.98;73.12
64833;HTU21D;51290;45.060;38.948;2022-12-18T01:10:10;8.94;73.19
64833;HTU21D;51290;45.060;38.948;2022-12-18T01:12:37;8.89;73.28
64833;HTU21D;51290;45.060;38.948;2022-12-18T01:15:04;8.86;73.38
64833;HTU21D;51290;45.060;38.948;2022-12-18T01:17:31;8.82;73.47
64833;HTU21D;51290;45.060;38.948;2022-12-18T01:19:57;8.80;73.51
64833;HTU21D;51290;45.060;38.948;2022-12-18T01:22:23;8.76;73.54
64833;HTU21D;51290;45.060;38.948;2022-12-18T01:24:49;8.74;73.56
64833;HTU21D;51290;45.060;38.948;2022-12-18T01:27:15;8.71;73.61
64833;HTU21D;51290;45.060;38.948;2022-12-18T01:29:41;8.68;73.69
64833;HTU21D;51290;45.060;38.948;2022-12-18T01:32:08;8.66;73.74
64833;HTU21D;51290;45.060;38.948;2022-12-18T01:34:36;8.64;73.83
64833;HTU21D;51290;45.060;38.948;2022-12-18T01:37:04;8.62;73.92
64833;HTU21D;51290;45.060;38.948;2022-12-18T01:39:31;8.63;74.02
64833;HTU21D;51290;45.060;38.948;2022-12-18T01:42:10;8.64;74.12
64833;HTU21D;51290;45.060;38.948;2022-12-18T01:50:17;8.71;74.31
64833;HTU21D;51290;45.060;38.948;2022-12-18T01:52:47;8.74;74.34
64833;HTU21D;51290;45.060;38.948;2022-12-18T01:55:17;8.77;74.35
64833;HTU21D;51290;45.060;38.948;2022-12-18T01:57:46;8.78;74.35
64833;HTU21D;51290;45.060;38.948;2022-12-18T02:00:18;8.83;74.41
64833;HTU21D;51290;45.060;38.948;2022-12-18T02:02:46;8.88;74.49
64833;HTU21D;51290;45.060;38.948;2022-12-18T02:05:15;8.93;74.50
64833;HTU21D;51290;45.060;38.948;2022-12-18T02:10:27;9.02;74.55
64833;HTU21D;51290;45.060;38.948;2022-12-18T02:13:10;9.08;74.53
64833;HTU21D;51290;45.060;38.948;2022-12-18T02:18:32;9.18;74.47
64833;HTU21D;51290;45.060;38.948;2022-12-18T02:21:32;9.23;74.46
64833;HTU21D;51290;45.060;38.948;2022-12-18T02:24:15;9.29;74.43
64833;HTU21D;51290;45.060;38.948;2022-12-18T02:26:47;9.31;74.41
64833;HTU21D;51290;45.060;38.948;2022-12-18T02:32:15;9.36;74.28
64833;HTU21D;51290;45.060;38.948;2022-12-18T02:34:44;9.35;74.26
64833;HTU21D;51290;45.060;38.948;2022-12-18T02:37:16;9.35;74.25
64833;HTU21D;51290;45.060;38.948;2022-12-18T02:39:45;9.32;74.22
64833;HTU21D;51290;45.060;38.948;2022-12-18T02:42:14;9.31;74.24
64833;HTU21D;51290;45.060;38.948;2022-12-18T02:44:47;9.29;74.25
64833;HTU21D;51290;45.060;38.948;2022-12-18T02:47:22;9.25;74.24
64833;HTU21D;51290;45.060;38.948;2022-12-18T02:50:18;9.22;74.26
64833;HTU21D;51290;45.060;38.948;2022-12-18T02:55:40;9.19;74.38
64833;HTU21D;51290;45.060;38.948;2022-12-18T02:58:18;9.18;74.37
64833;HTU21D;51290;45.060;38.948;2022-12-18T03:03:36;9.16;74.35
64833;HTU21D;51290;45.060;38.948;2022-12-18T03:06:16;9.14;74.39
64833;HTU21D;51290;45.060;38.948;2022-12-18T03:08:47;9.11;74.47
64833;HTU21D;51290;45.060;38.948;2022-12-18T03:11:15;9.11;74.53
64833;HTU21D;51290;45.060;38.948;2022-12-18T03:13:50;9.12;74.58
64833;HTU21D;51290;45.060;38.948;2022-12-18T03:16:24;9.12;74.62
64833;HTU21D;51290;45.060;38.948;2022-12-18T03:19:01;9.15;74.66
64833;HTU21D;51290;45.060;38.948;2022-12-18T03:21:36;9.18;74.79
64833;HTU21D;51290;45.060;38.948;2022-12-18T03:24:05;9.21;74.83
64833;HTU21D;51290;45.060;38.948;2022-12-18T03:26:34;9.26;74.83
64833;HTU21D;51290;45.060;38.948;2022-12-18T03:29:08;9.30;74.80
64833;HTU21D;51290;45.060;38.948;2022-12-18T03:31:37;9.32;74.79
64833;HTU21D;51290;45.060;38.948;2022-12-18T03:34:09;9.35;74.76
64833;HTU21D;51290;45.060;38.948;2022-12-18T03:36:42;9.37;74.73
64833;HTU21D;51290;45.060;38.948;2022-12-18T03:39:09;9.39;74.76
64833;HTU21D;51290;45.060;38.948;2022-12-18T03:41:55;9.42;74.83
64833;HTU21D;51290;45.060;38.948;2022-12-18T03:45:05;9.50;74.85
64833;HTU21D;51290;45.060;38.948;2022-12-18T03:50:49;9.60;74.77
64833;HTU21D;51290;45.060;38.948;2022-12-18T03:53:17;9.63;74.75
64833;HTU21D;51290;45.060;38.948;2022-12-18T03:55:47;9.75;75.20
64833;HTU21D;51290;45.060;38.948;2022-12-18T03:58:19;9.93;75.43
64833;HTU21D;51290;45.060;38.948;2022-12-18T04:00:56;10.15;75.44
64833;HTU21D;51290;45.060;38.948;2022-12-18T04:03:23;10.34;75.25
64833;HTU21D;51290;45.060;38.948;2022-12-18T04:05:51;10.48;74.94
64833;HTU21D;51290;45.060;38.948;2022-12-18T04:08:21;10.58;74.80
64833;HTU21D;51290;45.060;38.948;2022-12-18T04:10:56;10.68;74.74
64833;HTU21D;51290;45.060;38.948;2022-12-18T04:13:34;10.78;74.67
64833;HTU21D;51290;45.060;38.948;2022-12-18T04:16:02;10.87;74.64
64833;HTU21D;51290;45.060;38.948;2022-12-18T04:18:28;10.96;74.47
64833;HTU21D;51290;45.060;38.948;2022-12-18T04:20:55;11.00;74.30
64833;HTU21D;51290;45.060;38.948;2022-12-18T04:23:21;11.05;74.37
64833;HTU21D;51290;45.060;38.948;2022-12-18T04:25:47;11.17;74.54
64833;HTU21D;51290;45.060;38.948;2022-12-18T04:28:20;11.32;74.52
64833;HTU21D;51290;45.060;38.948;2022-12-18T04:30:49;11.51;74.35
64833;HTU21D;51290;45.060;38.948;2022-12-18T04:33:16;11.67;74.07
64833;HTU21D;51290;45.060;38.948;2022-12-18T04:35:42;11.79;73.88
64833;HTU21D;51290;45.060;38.948;2022-12-18T04:38:09;11.90;73.60
64833;HTU21D;51290;45.060;38.948;2022-12-18T04:40:36;12.01;73.41
64833;HTU21D;51290;45.060;38.948;2022-12-18T04:43:10;12.12;73.25
64833;HTU21D;51290;45.060;38.948;2022-12-18T04:45:36;12.18;73.08
64833;HTU21D;51290;45.060;38.948;2022-12-18T04:48:02;12.26;72.93
64833;HTU21D;51290;45.060;38.948;2022-12-18T04:50:29;12.32;72.77
64833;HTU21D;51290;45.060;38.948;2022-12-18T04:52:56;12.41;72.66
64833;HTU21D;51290;45.060;38.948;2022-12-18T04:55:26;12.46;72.49
64833;HTU21D;51290;45.060;38.948;2022-12-18T04:57:52;12.55;72.35
64833;HTU21D;51290;45.060;38.948;2022-12-18T05:00:19;12.64;72.17
64833;HTU21D;51290;45.060;38.948;2022-12-18T05:02:45;12.75;71.96
64833;HTU21D;51290;45.060;38.948;2022-12-18T05:05:11;12.86;71.64
64833;HTU21D;51290;45.060;38.948;2022-12-18T05:07:37;12.94;71.34
64833;HTU21D;51290;45.060;38.948;2022-12-18T05:10:12;13.02;71.11
64833;HTU21D;51290;45.060;38.948;2022-12-18T05:12:38;13.06;70.93
64833;HTU21D;51290;45.060;38.948;2022-12-18T05:15:26;13.08;70.76
64833;HTU21D;51290;45.060;38.948;2022-12-18T05:17:52;13.08;70.60
64833;HTU21D;51290;45.060;38.948;2022-12-18T05:20:18;13.06;70.49
64833;HTU21D;51290;45.060;38.948;2022-12-18T05:22:45;13.04;70.44
64833;HTU21D;51290;45.060;38.948;2022-12-18T05:25:11;12.97;70.39
64833;HTU21D;51290;45.060;38.948;2022-12-18T05:27:36;12.95;70.34
64833;HTU21D;51290;45.060;38.948;2022-12-18T05:30:03;12.94;70.32
64833;HTU21D;51290;45.060;38.948;2022-12-18T05:32:29;12.94;70.29
64833;HTU21D;51290;45.060;38.948;2022-12-18T05:34:55;12.97;70.24
64833;HTU21D;51290;45.060;38.948;2022-12-18T05:37:22;13.03;70.21
64833;HTU21D;51290;45.060;38.948;2022-12-18T05:39:49;13.10;70.19
64833;HTU21D;51290;45.060;38.948;2022-12-18T05:42:15;13.14;70.10
64833;HTU21D;51290;45.060;38.948;2022-12-18T05:44:41;13.18;70.04
64833;HTU21D;51290;45.060;38.948;2022-12-18T05:47:06;13.22;70.04
64833;HTU21D;51290;45.060;38.948;2022-12-18T05:49:32;13.25;69.98
64833;HTU21D;51290;45.060;38.948;2022-12-18T05:51:59;13.27;69.94
64833;HTU21D;51290;45.060;38.948;2022-12-18T05:54:27;13.29;69.91
64833;HTU21D;51290;45.060;38.948;2022-12-18T05:56:53;13.32;69.94
64833;HTU21D;51290;45.060;38.948;2022-12-18T05:59:19;13.34;69.91
64833;HTU21D;51290;45.060;38.948;2022-12-18T06:01:46;13.36;69.87
64833;HTU21D;51290;45.060;38.948;2022-12-18T06:04:12;13.41;69.84
64833;HTU21D;51290;45.060;38.948;2022-12-18T06:06:38;13.44;69.84
64833;HTU21D;51290;45.060;38.948;2022-12-18T06:09:04;13.47;69.84
64833;HTU21D;51290;45.060;38.948;2022-12-18T06:11:38;13.53;69.82
64833;HTU21D;51290;45.060;38.948;2022-12-18T06:14:05;13.60;69.81
64833;HTU21D;51290;45.060;38.948;2022-12-18T06:16:32;13.66;69.77
64833;HTU21D;51290;45.060;38.948;2022-12-18T06:18:59;13.77;69.72
64833;HTU21D;51290;45.060;38.948;2022-12-18T06:21:25;13.89;69.63
64833;HTU21D;51290;45.060;38.948;2022-12-18T06:23:52;14.03;69.50
64833;HTU21D;51290;45.060;38.948;2022-12-18T06:26:18;14.15;69.31
64833;HTU21D;51290;45.060;38.948;2022-12-18T06:28:44;14.29;69.07
64833;HTU21D;51290;45.060;38.948;2022-12-18T06:31:10;14.42;68.81
64833;HTU21D;51290;45.060;38.948;2022-12-18T06:33:37;14.54;68.44
64833;HTU21D;51290;45.060;38.948;2022-12-18T06:36:09;14.66;68.19
64833;HTU21D;51290;45.060;38.948;2022-12-18T06:38:37;14.77;67.97
64833;HTU21D;51290;45.060;38.948;2022-12-18T06:41:11;14.84;67.67
64833;HTU21D;51290;45.060;38.948;2022-12-18T06:43:38;14.88;67.45
64833;HTU21D;51290;45.060;38.948;2022-12-18T06:46:04;14.94;67.14
64833;HTU21D;51290;45.060;38.948;2022-12-18T06:48:31;14.94;67.01
64833;HTU21D;51290;45.060;38.948;2022-12-18T06:50:57;14.92;66.90
64833;HTU21D;51290;45.060;38.948;2022-12-18T06:53:23;14.91;66.66
64833;HTU21D;51290;45.060;38.948;2022-12-18T06:55:49;14.91;66.63
64833;HTU21D;51290;45.060;38.948;2022-12-18T06:58:15;14.92;66.53
64833;HTU21D;51290;45.060;38.948;2022-12-18T07:00:41;14.89;66.37
64833;HTU21D;51290;45.060;38.948;2022-12-18T07:03:07;14.87;66.28
64833;HTU21D;51290;45.060;38.948;2022-12-18T07:05:34;14.85;66.09
64833;HTU21D;51290;45.060;38.948;2022-12-18T07:08:00;14.84;66.04
64833;HTU21D;51290;45.060;38.948;2022-12-18T07:10:26;14.82;66.08
64833;HTU21D;51290;45.060;38.948;2022-12-18T07:12:52;14.84;66.14
64833;HTU21D;51290;45.060;38.948;2022-12-18T07:15:18;14.86;66.07
64833;HTU21D;51290;45.060;38.948;2022-12-18T07:17:44;14.93;66.04
64833;HTU21D;51290;45.060;38.948;2022-12-18T07:20:10;14.99;65.87
64833;HTU21D;51290;45.060;38.948;2022-12-18T07:22:36;15.04;65.67
64833;HTU21D;51290;45.060;38.948;2022-12-18T07:25:02;15.12;65.42
64833;HTU21D;51290;45.060;38.948;2022-12-18T07:27:28;15.16;65.19
64833;HTU21D;51290;45.060;38.948;2022-12-18T07:29:54;15.21;65.09
64833;HTU21D;51290;45.060;38.948;2022-12-18T07:32:20;15.25;64.86
64833;HTU21D;51290;45.060;38.948;2022-12-18T07:34:46;15.31;64.56
64833;HTU21D;51290;45.060;38.948;2022-12-18T07:37:12;15.40;64.43
64833;HTU21D;51290;45.060;38.948;2022-12-18T07:39:38;15.48;64.21
64833;HTU21D;51290;45.060;38.948;2022-12-18T07:42:10;15.60;64.09
64833;HTU21D;51290;45.060;38.948;2022-12-18T07:44:54;15.75;63.83
64833;HTU21D;51290;45.060;38.948;2022-12-18T07:47:20;15.88;63.34
64833;HTU21D;51290;45.060;38.948;2022-12-18T07:49:46;16.01;63.04
64833;HTU21D;51290;45.060;38.948;2022-12-18T07:52:12;16.10;62.62
64833;HTU21D;51290;45.060;38.948;2022-12-18T07:54:38;16.17;62.55
64833;HTU21D;51290;45.060;38.948;2022-12-18T07:57:06;16.27;62.43
64833;HTU21D;51290;45.060;38.948;2022-12-18T07:59:32;16.35;62.00
64833;HTU21D;51290;45.060;38.948;2022-12-18T08:01:58;16.45;61.71
64833;HTU21D;51290;45.060;38.948;2022-12-18T08:04:25;16.52;61.76
64833;HTU21D;51290;45.060;38.948;2022-12-18T08:06:51;16.62;61.79
64833;HTU21D;51290;45.060;38.948;2022-12-18T08:09:17;16.73;61.75
64833;HTU21D;51290;45.060;38.948;2022-12-18T08:11:44;16.79;61.70
64833;HTU21D;51290;45.060;38.948;2022-12-18T08:14:10;16.87;61.44
64833;HTU21D;51290;45.060;38.948;2022-12-18T08:16:36;16.95;61.27
64833;HTU21D;51290;45.060;38.948;2022-12-18T08:19:02;17.02;61.15
64833;HTU21D;51290;45.060;38.948;2022-12-18T08:21:31;17.08;60.98
64833;HTU21D;51290;45.060;38.948;2022-12-18T08:23:59;17.16;60.80
64833;HTU21D;51290;45.060;38.948;2022-12-18T08:26:27;17.22;60.77
64833;HTU21D;51290;45.060;38.948;2022-12-18T08:28:55;17.30;60.63
64833;HTU21D;51290;45.060;38.948;2022-12-18T08:31:21;17.39;60.80
64833;HTU21D;51290;45.060;38.948;2022-12-18T08:33:50;17.48;60.83
64833;HTU21D;51290;45.060;38.948;2022-12-18T08:36:16;17.58;60.82
64833;HTU21D;51290;45.060;38.948;2022-12-18T08:38:42;17.68;60.55
64833;HTU21D;51290;45.060;38.948;2022-12-18T08:41:11;17.79;60.23
64833;HTU21D;51290;45.060;38.948;2022-12-18T08:43:37;17.88;60.05
64833;HTU21D;51290;45.060;38.948;2022-12-18T08:46:24;17.98;60.11
64833;HTU21D;51290;45.060;38.948;2022-12-18T08:48:51;18.07;60.14
64833;HTU21D;51290;45.060;38.948;2022-12-18T08:51:18;18.17;60.15
64833;HTU21D;51290;45.060;38.948;2022-12-18T08:53:45;18.25;60.01
64833;HTU21D;51290;45.060;38.948;2022-12-18T08:56:12;18.32;59.90
64833;HTU21D;51290;45.060;38.948;2022-12-18T08:58:39;18.42;59.96
64833;HTU21D;51290;45.060;38.948;2022-12-18T09:01:08;18.49;59.91
64833;HTU21D;51290;45.060;38.948;2022-12-18T09:03:35;18.58;59.96
64833;HTU21D;51290;45.060;38.948;2022-12-18T09:06:01;18.68;59.86
64833;HTU21D;51290;45.060;38.948;2022-12-18T09:08:28;18.79;59.61
64833;HTU21D;51290;45.060;38.948;2022-12-18T09:10:54;18.89;59.50
64833;HTU21D;51290;45.060;38.948;2022-12-18T09:13:21;18.98;59.38
64833;HTU21D;51290;45.060;38.948;2022-12-18T09:15:54;19.08;59.21
64833;HTU21D;51290;45.060;38.948;2022-12-18T09:18:22;19.18;59.22
64833;HTU21D;51290;45.060;38.948;2022-12-18T09:20:49;19.30;58.95
64833;HTU21D;51290;45.060;38.948;2022-12-18T09:23:17;19.42;58.81
64833;HTU21D;51290;45.060;38.948;2022-12-18T09:25:43;19.53;58.74
64833;HTU21D;51290;45.060;38.948;2022-12-18T09:28:17;19.62;58.64
64833;HTU21D;51290;45.060;38.948;2022-12-18T09:30:48;19.71;58.49
64833;HTU21D;51290;45.060;38.948;2022-12-18T09:33:15;19.77;58.32
64833;HTU21D;51290;45.060;38.948;2022-12-18T09:35:43;19.83;58.19
64833;HTU21D;51290;45.060;38.948;2022-12-18T09:38:13;19.85;58.14
64833;HTU21D;51290;45.060;38.948;2022-12-18T09:40:48;19.86;58.15
64833;HTU21D;51290;45.060;38.948;2022-12-18T09:46:30;19.89;58.12
64833;HTU21D;51290;45.060;38.948;2022-12-18T09:49:01;19.87;57.98
64833;HTU21D;51290;45.060;38.948;2022-12-18T09:51:45;19.86;58.02
64833;HTU21D;51290;45.060;38.948;2022-12-18T09:54:18;19.85;57.96
64833;HTU21D;51290;45.060;38.948;2022-12-18T09:56:46;19.83;57.71
64833;HTU21D;51290;45.060;38.948;2022-12-18T09:59:25;19.80;57.73
64833;HTU21D;51290;45.060;38.948;2022-12-18T10:01:52;19.79;57.75
64833;HTU21D;51290;45.060;38.948;2022-12-18T10:04:18;19.77;57.73
64833;HTU21D;51290;45.060;38.948;2022-12-18T10:07:26;19.76;57.72
64833;HTU21D;51290;45.060;38.948;2022-12-18T10:10:18;19.76;57.78
64833;HTU21D;51290;45.060;38.948;2022-12-18T10:16:06;19.60;57.30
64833;HTU21D;51290;45.060;38.948;2022-12-18T10:21:42;19.32;57.44
64833;HTU21D;51290;45.060;38.948;2022-12-18T10:26:41;19.10;57.61
64833;HTU21D;51290;45.060;38.948;2022-12-18T10:29:12;19.00;57.74
64833;HTU21D;51290;45.060;38.948;2022-12-18T10:31:39;18.91;57.72
64833;HTU21D;51290;45.060;38.948;2022-12-18T10:34:15;18.79;57.74
64833;HTU21D;51290;45.060;38.948;2022-12-18T10:36:42;18.67;57.62
64833;HTU21D;51290;45.060;38.948;2022-12-18T10:39:22;18.54;57.61
64833;HTU21D;51290;45.060;38.948;2022-12-18T10:41:49;18.42;57.78
64833;HTU21D;51290;45.060;38.948;2022-12-18T10:44:20;18.26;57.43
64833;HTU21D;51290;45.060;38.948;2022-12-18T10:47:02;18.04;57.54
64833;HTU21D;51290;45.060;38.948;2022-12-18T10:49:31;17.77;57.90
64833;HTU21D;51290;45.060;38.948;2022-12-18T10:54:53;17.30;58.61
64833;HTU21D;51290;45.060;38.948;2022-12-18T10:57:39;17.05;58.97
64833;HTU21D;51290;45.060;38.948;2022-12-18T11:00:27;16.85;59.28
64833;HTU21D;51290;45.060;38.948;2022-12-18T11:02:54;16.67;59.54
64833;HTU21D;51290;45.060;38.948;2022-12-18T11:05:28;16.51;59.80
64833;HTU21D;51290;45.060;38.948;2022-12-18T11:07:55;16.36;60.05
64833;HTU21D;51290;45.060;38.948;2022-12-18T11:10:26;16.22;60.30
64833;HTU21D;51290;45.060;38.948;2022-12-18T11:12:53;16.08;60.56
64833;HTU21D;51290;45.060;38.948;2022-12-18T11:15:23;15.97;60.80
64833;HTU21D;51290;45.060;38.948;2022-12-18T11:17:52;15.83;61.20
64833;HTU21D;51290;45.060;38.948;2022-12-18T11:22:58;15.54;61.88
64833;HTU21D;51290;45.060;38.948;2022-12-18T11:25:28;15.40;62.21
64833;HTU21D;51290;45.060;38.948;2022-12-18T11:27:59;15.27;62.44
64833;HTU21D;51290;45.060;38.948;2022-12-18T11:30:29;15.15;62.70
64833;HTU21D;51290;45.060;38.948;2022-12-18T11:33:03;15.02;63.08
64833;HTU21D;51290;45.060;38.948;2022-12-18T11:35:59;14.94;63.24
64833;HTU21D;51290;45.060;38.948;2022-12-18T11:38:39;14.84;63.48
64833;HTU21D;51290;45.060;38.948;2022-12-18T11:44:13;14.71;64.09
64833;HTU21D;51290;45.060;38.948;2022-12-18T11:46:48;14.68;64.28
64833;HTU21D;51290;45.060;38.948;2022-12-18T11:49:33;14.66;64.47
64833;HTU21D;51290;45.060;38.948;2022-12-18T11:52:26;14.66;64.54
64833;HTU21D;51290;45.060;38.948;2022-12-18T11:54:58;14.67;64.71
64833;HTU21D;51290;45.060;38.948;2022-12-18T12:00:22;14.69;64.84
64833;HTU21D;51290;45.060;38.948;2022-12-18T12:03:11;14.72;64.95
64833;HTU21D;51290;45.060;38.948;2022-12-18T12:06:06;14.72;65.04
64833;HTU21D;51290;45.060;38.948;2022-12-18T12:13:58;14.75;65.43
64833;HTU21D;51290;45.060;38.948;2022-12-18T12:16:37;14.74;65.66
64833;HTU21D;51290;45.060;38.948;2022-12-18T12:35:37;14.41;66.59
64833;HTU21D;51290;45.060;38.948;2022-12-18T12:41:04;14.28;67.01
64833;HTU21D;51290;45.060;38.948;2022-12-18T12:43:46;14.23;67.14
64833;HTU21D;51290;45.060;38.948;2022-12-18T12:46:17;14.19;67.30
64833;HTU21D;51290;45.060;38.948;2022-12-18T12:49:00;14.15;67.40
64833;HTU21D;51290;45.060;38.948;2022-12-18T12:51:35;14.08;67.47
64833;HTU21D;51290;45.060;38.948;2022-12-18T12:54:04;14.04;67.56
64833;HTU21D;51290;45.060;38.948;2022-12-18T12:57:09;13.97;67.60
64833;HTU21D;51290;45.060;38.948;2022-12-18T13:02:57;13.83;67.75
64833;HTU21D;51290;45.060;38.948;2022-12-18T13:08:11;13.69;67.96
64833;HTU21D;51290;45.060;38.948;2022-12-18T13:10:43;13.63;68.03
64833;HTU21D;51290;45.060;38.948;2022-12-18T13:13:13;13.56;68.12
64833;HTU21D;51290;45.060;38.948;2022-12-18T13:15:45;13.49;68.17
64833;HTU21D;51290;45.060;38.948;2022-12-18T13:18:15;13.41;68.31
64833;HTU21D;51290;45.060;38.948;2022-12-18T13:20:47;13.31;68.39
64833;HTU21D;51290;45.060;38.948;2022-12-18T13:36:25;12.93;68.85
64833;HTU21D;51290;45.060;38.948;2022-12-18T13:39:11;12.85;68.81
64833;HTU21D;51290;45.060;38.948;2022-12-18T13:41:41;12.77;68.88
64833;HTU21D;51290;45.060;38.948;2022-12-18T13:46:46;12.58;69.07
64833;HTU21D;51290;45.060;38.948;2022-12-18T13:51:49;12.34;69.31
64833;HTU21D;51290;45.060;38.948;2022-12-18T13:54:19;12.22;69.47
64833;HTU21D;51290;45.060;38.948;2022-12-18T13:56:47;12.13;69.55
64833;HTU21D;51290;45.060;38.948;2022-12-18T14:01:48;11.90;69.73
64833;HTU21D;51290;45.060;38.948;2022-12-18T14:04:21;11.78;69.79
64833;HTU21D;51290;45.060;38.948;2022-12-18T14:06:50;11.66;69.87
64833;HTU21D;51290;45.060;38.948;2022-12-18T14:09:22;11.54;69.94
64833;HTU21D;51290;45.060;38.948;2022-12-18T14:11:50;11.37;70.02
64833;HTU21D;51290;45.060;38.948;2022-12-18T14:14:17;11.24;70.17
64833;HTU21D;51290;45.060;38.948;2022-12-18T14:16:45;11.12;70.38
64833;HTU21D;51290;45.060;38.948;2022-12-18T14:19:17;10.99;70.51
64833;HTU21D;51290;45.060;38.948;2022-12-18T14:21:48;10.89;70.63
64833;HTU21D;51290;45.060;38.948;2022-12-18T14:24:20;10.80;70.74
64833;HTU21D;51290;45.060;38.948;2022-12-18T14:26:48;10.72;70.84
64833;HTU21D;51290;45.060;38.948;2022-12-18T14:29:28;10.65;70.90
64833;HTU21D;51290;45.060;38.948;2022-12-18T14:34:33;10.50;71.05
64833;HTU21D;51290;45.060;38.948;2022-12-18T14:36:59;10.40;71.22
64833;HTU21D;51290;45.060;38.948;2022-12-18T14:39:25;10.30;71.43
64833;HTU21D;51290;45.060;38.948;2022-12-18T14:41:52;10.22;71.58
64833;HTU21D;51290;45.060;38.948;2022-12-18T14:44:18;10.14;71.67
64833;HTU21D;51290;45.060;38.948;2022-12-18T14:46:47;10.09;71.74
64833;HTU21D;51290;45.060;38.948;2022-12-18T14:49:47;10.07;71.74
64833;HTU21D;51290;45.060;38.948;2022-12-18T14:52:24;10.01;71.77
64833;HTU21D;51290;45.060;38.948;2022-12-18T14:54:52;9.97;71.78
64833;HTU21D;51290;45.060;38.948;2022-12-18T14:57:23;9.94;71.84
64833;HTU21D;51290;45.060;38.948;2022-12-18T14:59:50;9.88;71.78
64833;HTU21D;51290;45.060;38.948;2022-12-18T15:02:25;9.83;71.80
64833;HTU21D;51290;45.060;38.948;2022-12-18T15:07:44;9.69;71.77
64833;HTU21D;51290;45.060;38.948;2022-12-18T15:10:19;9.61;71.77
64833;HTU21D;51290;45.060;38.948;2022-12-18T15:12:50;9.51;71.97
64833;HTU21D;51290;45.060;38.948;2022-12-18T15:18:15;9.38;72.20
64833;HTU21D;51290;45.060;38.948;2022-12-18T15:20:58;9.33;72.39
64833;HTU21D;51290;45.060;38.948;2022-12-18T15:23:33;9.29;72.48
64833;HTU21D;51290;45.060;38.948;2022-12-18T15:26:02;9.24;72.51
64833;HTU21D;51290;45.060;38.948;2022-12-18T15:28:38;9.21;72.55
64833;HTU21D;51290;45.060;38.948;2022-12-18T15:33:40;9.14;72.70
64833;HTU21D;51290;45.060;38.948;2022-12-18T15:36:12;9.09;72.77
64833;HTU21D;51290;45.060;38.948;2022-12-18T15:38:39;9.06;72.72
64833;HTU21D;51290;45.060;38.948;2022-12-18T15:41:14;9.03;72.71
64833;HTU21D;51290;45.060;38.948;2022-12-18T15:43:41;8.98;72.74
64833;HTU21D;51290;45.060;38.948;2022-12-18T15:46:12;8.92;72.79
64833;HTU21D;51290;45.060;38.948;2022-12-18T15:48:43;8.88;72.87
64833;HTU21D;51290;45.060;38.948;2022-12-18T15:51:31;8.83;72.86
64833;HTU21D;51290;45.060;38.948;2022-12-18T15:53:59;8.76;72.99
64833;HTU21D;51290;45.060;38.948;2022-12-18T15:56:26;8.72;72.99
64833;HTU21D;51290;45.060;38.948;2022-12-18T15:59:15;8.65;73.09
64833;HTU21D;51290;45.060;38.948;2022-12-18T16:01:42;8.57;73.09
64833;HTU21D;51290;45.060;38.948;2022-12-18T16:04:13;8.48;73.24
64833;HTU21D;51290;45.060;38.948;2022-12-18T16:06:41;8.42;73.38
64833;HTU21D;51290;45.060;38.948;2022-12-18T16:09:07;8.37;73.48
64833;HTU21D;51290;45.060;38.948;2022-12-18T16:11:36;8.32;73.54
64833;HTU21D;51290;45.060;38.948;2022-12-18T16:14:20;8.26;73.49
64833;HTU21D;51290;45.060;38.948;2022-12-18T16:16:49;8.16;73.56
64833;HTU21D;51290;45.060;38.948;2022-12-18T16:19:16;8.08;73.64
64833;HTU21D;51290;45.060;38.948;2022-12-18T16:21:42;8.00;73.64
64833;HTU21D;51290;45.060;38.948;2022-12-18T16:26:43;7.83;73.86
64833;HTU21D;51290;45.060;38.948;2022-12-18T16:29:09;7.73;73.90
64833;HTU21D;51290;45.060;38.948;2022-12-18T16:31:36;7.64;73.97
64833;HTU21D;51290;45.060;38.948;2022-12-18T16:34:24;7.56;74.06
64833;HTU21D;51290;45.060;38.948;2022-12-18T16:36:58;7.52;74.18
64833;HTU21D;51290;45.060;38.948;2022-12-18T16:39:26;7.50;74.26
64833;HTU21D;51290;45.060;38.948;2022-12-18T16:41:52;7.47;74.29
64833;HTU21D;51290;45.060;38.948;2022-12-18T16:44:18;7.46;74.25
64833;HTU21D;51290;45.060;38.948;2022-12-18T16:46:45;7.42;74.27
64833;HTU21D;51290;45.060;38.948;2022-12-18T16:49:13;7.40;74.35
64833;HTU21D;51290;45.060;38.948;2022-12-18T16:51:39;7.39;74.32
64833;HTU21D;51290;45.060;38.948;2022-12-18T16:54:05;7.37;74.35
64833;HTU21D;51290;45.060;38.948;2022-12-18T16:56:31;7.35;74.38
64833;HTU21D;51290;45.060;38.948;2022-12-18T16:58:58;7.35;74.37
64833;HTU21D;51290;45.060;38.948;2022-12-18T17:01:26;7.35;74.38
64833;HTU21D;51290;45.060;38.948;2022-12-18T17:04:04;7.35;74.39
64833;HTU21D;51290;45.060;38.948;2022-12-18T17:06:33;7.37;74.37
64833;HTU21D;51290;45.060;38.948;2022-12-18T17:09:05;7.34;74.31
64833;HTU21D;51290;45.060;38.948;2022-12-18T17:11:33;7.33;74.34
64833;HTU21D;51290;45.060;38.948;2022-12-18T17:14:05;7.33;74.38
64833;HTU21D;51290;45.060;38.948;2022-12-18T17:16:32;7.34;74.36
64833;HTU21D;51290;45.060;38.948;2022-12-18T17:18:58;7.33;74.36